Time;durP1;ratioP1;P1;durP2;ratioP2;P2;SDS_P1;SDS_P2;PMS_P1;PMS_P2;Temp;Humidity;BMP_temperature;BMP_pressure;BME280_temperature;BME280_humidity;BME280_pressure;Samples;Min_cycle;Max_cycle;Signal;HPM_P1;HPM_P2
2022/07/17 00:01:36;;;;;;;4.92;4.40;;;;;;;18.88;67.08;99802.70;1685867;84;21062;-71
2022/07/17 00:04:03;;;;;;;3.87;3.02;;;;;;;18.83;67.12;99798.16;1685803;85;21655;-74
2022/07/17 00:06:29;;;;;;;4.05;2.77;;;;;;;18.80;67.10;99800.69;1685881;85;21554;-72
2022/07/17 00:08:56;;;;;;;4.90;3.65;;;;;;;18.77;67.17;99796.63;1685582;85;21071;-70
2022/07/17 00:11:25;;;;;;;7.60;3.58;;;;;;;18.75;67.44;99795.33;1685907;84;20976;-70
2022/07/17 00:13:53;;;;;;;4.10;3.62;;;;;;;18.72;67.65;99791.27;1685324;84;21099;-71
2022/07/17 00:16:20;;;;;;;8.98;4.65;;;;;;;18.70;67.71;99783.97;1685592;85;21281;-71
2022/07/17 00:18:49;;;;;;;4.92;3.33;;;;;;;18.68;67.71;99771.19;1685611;84;21260;-70
2022/07/17 00:21:16;;;;;;;3.87;3.45;;;;;;;18.63;69.22;99782.18;1685845;85;20989;-72
2022/07/17 00:23:43;;;;;;;4.78;3.52;;;;;;;18.55;69.93;99791.05;1685242;84;21564;-70
2022/07/17 00:26:09;;;;;;;5.45;3.60;;;;;;;18.48;69.86;99783.23;1685805;85;21064;-70
2022/07/17 00:28:36;;;;;;;3.62;3.27;;;;;;;18.48;69.77;99775.06;1668188;85;21478;-70
2022/07/17 00:31:03;;;;;;;6.65;3.55;;;;;;;18.52;69.50;99777.98;1685535;85;21152;-70
2022/07/17 00:33:31;;;;;;;5.78;3.10;;;;;;;18.56;69.46;99792.09;1685506;84;21564;-68
2022/07/17 00:35:58;;;;;;;4.72;2.90;;;;;;;18.59;69.22;99797.52;1658007;86;21043;-69
2022/07/17 00:38:25;;;;;;;3.58;3.27;;;;;;;18.61;69.07;99802.09;1665076;85;21072;-69
2022/07/17 00:40:56;;;;;;;4.90;3.25;;;;;;;18.60;69.23;99805.95;1685847;84;21545;-66
2022/07/17 00:43:23;;;;;;;7.03;4.50;;;;;;;18.58;69.63;99797.25;1685557;84;21187;-72
2022/07/17 00:46:02;;;;;;;4.70;3.50;;;;;;;18.55;70.21;99786.97;1685736;85;21040;-74
2022/07/17 00:48:32;;;;;;;4.37;3.00;;;;;;;18.52;70.56;99773.90;1686052;84;21001;-71
2022/07/17 00:51:00;;;;;;;7.17;3.05;;;;;;;18.47;70.69;99766.63;1686011;84;21024;-74
2022/07/17 00:53:28;;;;;;;5.90;3.70;;;;;;;18.44;70.80;99760.43;1685575;84;21190;-71
2022/07/17 00:55:57;;;;;;;5.00;3.55;;;;;;;18.44;70.88;99758.25;1685728;84;21137;-71
2022/07/17 00:58:25;;;;;;;3.90;3.20;;;;;;;18.40;71.20;99749.07;1685703;84;21035;-74
2022/07/17 01:00:54;;;;;;;8.15;4.03;;;;;;;18.41;71.37;99741.16;1685794;84;21107;-71
2022/07/17 01:03:22;;;;;;;9.38;4.60;;;;;;;18.44;71.57;99746.00;1685464;85;21659;-72
2022/07/17 01:05:49;;;;;;;3.27;2.98;;;;;;;18.47;71.65;99763.09;1685810;85;21100;-73
2022/07/17 01:08:16;;;;;;;7.72;5.05;;;;;;;18.52;71.74;99758.91;1684625;84;21253;-72
2022/07/17 01:10:44;;;;;;;5.97;3.52;;;;;;;18.55;71.72;99760.53;1685344;85;20999;-72
2022/07/17 01:13:10;;;;;;;6.10;3.77;;;;;;;18.57;71.69;99759.66;1686322;85;21117;-73
2022/07/17 01:15:39;;;;;;;5.03;3.00;;;;;;;18.57;71.79;99758.85;1685797;85;20992;-70
2022/07/17 01:18:11;;;;;;;4.72;3.25;;;;;;;18.57;71.96;99754.77;1684812;84;21106;-71
2022/07/17 01:20:40;;;;;;;4.55;3.45;;;;;;;18.55;72.18;99752.92;1685416;84;21042;-69
2022/07/17 01:23:07;;;;;;;12.18;4.22;;;;;;;18.50;72.49;99755.16;1684352;84;21088;-70
2022/07/17 01:25:34;;;;;;;5.90;3.20;;;;;;;18.44;72.79;99759.06;1685446;85;21013;-72
2022/07/17 01:28:00;;;;;;;7.12;3.15;;;;;;;18.40;72.95;99758.61;1685437;84;21652;-73
2022/07/17 01:30:28;;;;;;;4.00;2.60;;;;;;;18.37;73.14;99749.69;1685465;84;20976;-71
2022/07/17 01:32:54;;;;;;;4.33;3.87;;;;;;;18.37;73.31;99740.94;1685748;85;21847;-71
2022/07/17 01:35:21;;;;;;;4.67;3.25;;;;;;;18.37;73.33;99734.13;1685818;84;21048;-71
2022/07/17 01:37:48;;;;;;;4.30;3.40;;;;;;;18.41;73.43;99734.35;1684602;84;21073;-70
2022/07/17 01:40:16;;;;;;;3.67;3.37;;;;;;;18.41;73.42;99732.44;1685698;85;21009;-69
2022/07/17 01:42:45;;;;;;;7.22;3.60;;;;;;;18.42;73.48;99734.58;1685512;84;21053;-70
2022/07/17 01:45:12;;;;;;;4.67;3.50;;;;;;;18.41;73.45;99731.63;1685820;84;21134;-69
2022/07/17 01:47:39;;;;;;;5.40;3.30;;;;;;;18.40;73.60;99725.38;1685773;85;21486;-71
2022/07/17 01:50:08;;;;;;;4.10;3.02;;;;;;;18.37;73.76;99719.14;1668036;85;21063;-70
2022/07/17 01:52:38;;;;;;;4.75;3.37;;;;;;;18.37;73.83;99726.53;1668284;85;21083;-71
2022/07/17 01:55:06;;;;;;;6.33;4.10;;;;;;;18.34;73.95;99734.73;1685865;84;21072;-70
2022/07/17 01:57:33;;;;;;;5.53;3.45;;;;;;;18.34;74.07;99745.62;1685488;84;21066;-71
2022/07/17 02:00:01;;;;;;;5.40;3.58;;;;;;;18.36;74.13;99741.25;1677186;84;20983;-69
2022/07/17 02:02:30;;;;;;;4.85;3.55;;;;;;;18.38;74.12;99740.38;1684969;84;21377;-69
2022/07/17 02:04:56;;;;;;;5.15;3.60;;;;;;;18.42;74.10;99742.75;1685577;85;20945;-70
2022/07/17 02:07:24;;;;;;;3.22;2.95;;;;;;;18.44;74.02;99744.09;1685023;84;21071;-71
2022/07/17 02:09:52;;;;;;;5.70;3.33;;;;;;;18.48;73.92;99742.92;1684885;84;21101;-71
2022/07/17 02:12:19;;;;;;;4.58;4.05;;;;;;;18.47;73.85;99743.48;1685719;84;21097;-71
2022/07/17 02:14:46;;;;;;;5.17;3.70;;;;;;;18.44;73.89;99749.53;1685806;84;21034;-69
2022/07/17 02:17:12;;;;;;;3.08;2.70;;;;;;;18.40;73.96;99742.27;1661198;85;21100;-70
2022/07/17 02:19:41;;;;;;;4.12;3.27;;;;;;;18.38;74.01;99745.83;1685602;84;20951;-71
2022/07/17 02:22:07;;;;;;;5.60;3.22;;;;;;;18.35;73.95;99743.72;1673295;84;21075;-70
2022/07/17 02:24:36;;;;;;;6.03;3.62;;;;;;;18.33;74.02;99750.00;1674266;84;20968;-71
2022/07/17 02:27:05;;;;;;;4.40;3.10;;;;;;;18.30;74.04;99754.14;1685707;84;21005;-70
2022/07/17 02:29:32;;;;;;;6.72;3.35;;;;;;;18.30;74.07;99749.52;1685888;85;21003;-70
2022/07/17 02:31:59;;;;;;;5.15;3.45;;;;;;;18.34;74.02;99746.17;1685830;84;21071;-70
2022/07/17 02:34:27;;;;;;;5.75;3.62;;;;;;;18.36;73.96;99731.17;1685648;84;21136;-70
2022/07/17 02:36:53;;;;;;;4.87;3.80;;;;;;;18.40;73.85;99740.35;1685760;84;21001;-69
2022/07/17 02:39:20;;;;;;;3.85;3.20;;;;;;;18.44;73.52;99741.91;1685243;85;21338;-71
2022/07/17 02:41:48;;;;;;;7.25;3.22;;;;;;;18.45;73.22;99727.19;1667821;85;21549;-70
2022/07/17 02:44:15;;;;;;;4.70;3.00;;;;;;;18.44;73.16;99728.30;1685730;85;21087;-71
2022/07/17 02:46:42;;;;;;;6.30;3.60;;;;;;;18.42;73.06;99719.61;1685603;85;21145;-70
2022/07/17 02:49:09;;;;;;;5.25;3.50;;;;;;;18.41;72.95;99717.47;1685848;84;21482;-70
2022/07/17 02:51:37;;;;;;;5.87;3.55;;;;;;;18.41;73.01;99731.63;1668032;85;21017;-70
2022/07/17 02:54:04;;;;;;;3.90;3.00;;;;;;;18.39;73.00;99743.37;1685680;84;20990;-70
2022/07/17 02:56:30;;;;;;;4.15;3.35;;;;;;;18.38;73.01;99751.27;1685585;85;21557;-71
2022/07/17 02:58:57;;;;;;;4.67;3.27;;;;;;;18.38;72.60;99752.09;1685789;85;21326;-70
2022/07/17 03:01:24;;;;;;;4.60;3.17;;;;;;;18.38;72.70;99743.91;1684248;84;21517;-69
2022/07/17 03:03:51;;;;;;;7.03;3.87;;;;;;;18.39;72.65;99731.92;1686728;85;21080;-72
2022/07/17 03:06:17;;;;;;;3.92;3.52;;;;;;;18.42;72.36;99719.61;1678899;85;21523;-70
2022/07/17 03:08:45;;;;;;;6.50;3.42;;;;;;;18.43;72.22;99709.78;1663975;85;21025;-70
2022/07/17 03:11:11;;;;;;;4.55;3.55;;;;;;;18.48;72.03;99709.69;1669046;85;21065;-71
2022/07/17 03:13:38;;;;;;;18.23;4.60;;;;;;;18.52;71.83;99724.87;1686629;85;21012;-70
2022/07/17 03:16:05;;;;;;;3.52;3.22;;;;;;;18.53;71.80;99730.05;1677682;85;21024;-69
2022/07/17 03:18:35;;;;;;;5.25;3.60;;;;;;;18.52;71.69;99725.67;1668344;85;21546;-70
2022/07/17 03:21:02;;;;;;;3.65;2.87;;;;;;;18.49;71.31;99726.84;1660098;85;20974;-70
2022/07/17 03:23:28;;;;;;;7.12;2.85;;;;;;;18.43;71.08;99735.66;1673494;85;21162;-69
2022/07/17 03:25:56;;;;;;;3.35;3.02;;;;;;;18.39;71.17;99741.45;1685920;85;21064;-71
2022/07/17 03:28:23;;;;;;;4.90;3.45;;;;;;;18.37;71.28;99745.02;1669176;84;21170;-71
2022/07/17 03:30:50;;;;;;;3.42;3.12;;;;;;;18.32;71.59;99733.44;1686546;85;21681;-71
2022/07/17 03:33:17;;;;;;;3.17;2.87;;;;;;;18.25;71.51;99719.64;1679628;85;21559;-71
2022/07/17 03:35:43;;;;;;;3.92;2.77;;;;;;;18.23;71.62;99736.83;1683747;85;22161;-69
2022/07/17 03:38:10;;;;;;;4.28;2.77;;;;;;;18.25;71.35;99757.77;1673472;85;21067;-71
2022/07/17 03:40:37;;;;;;;5.65;3.95;;;;;;;18.27;71.22;99759.62;1658233;85;21036;-70
2022/07/17 03:43:04;;;;;;;3.30;2.83;;;;;;;18.28;71.09;99754.44;1668278;85;21020;-70
2022/07/17 03:45:32;;;;;;;9.13;3.45;;;;;;;18.29;70.74;99751.16;1686529;85;21107;-72
2022/07/17 03:47:59;;;;;;;7.33;3.77;;;;;;;18.29;70.50;99738.91;1682525;84;21526;-70
2022/07/17 03:50:25;;;;;;;3.00;2.70;;;;;;;18.27;70.25;99740.56;1682687;85;20979;-70
2022/07/17 03:52:52;;;;;;;4.67;3.10;;;;;;;18.28;70.50;99738.64;1683609;85;21058;-71
2022/07/17 03:55:19;;;;;;;6.42;4.00;;;;;;;18.28;70.33;99726.39;1685086;84;20994;-69
2022/07/17 03:57:46;;;;;;;10.43;3.67;;;;;;;18.29;70.49;99737.00;1676274;85;20991;-70
2022/07/17 04:00:15;;;;;;;6.28;2.92;;;;;;;18.30;70.34;99748.70;1676296;85;21254;-71
2022/07/17 04:02:43;;;;;;;4.87;3.05;;;;;;;18.30;70.35;99744.06;1682794;84;20941;-71
2022/07/17 04:05:10;;;;;;;3.90;3.50;;;;;;;18.30;70.44;99739.98;1681779;85;21049;-71
2022/07/17 04:07:39;;;;;;;4.55;3.60;;;;;;;18.28;70.27;99739.45;1681996;85;20993;-71
2022/07/17 04:10:08;;;;;;;3.72;3.35;;;;;;;18.26;70.30;99733.52;1682789;84;21415;-71
2022/07/17 04:12:35;;;;;;;8.18;4.25;;;;;;;18.26;70.48;99732.16;1693933;84;21159;-70
2022/07/17 04:15:06;;;;;;;6.28;3.65;;;;;;;18.28;70.44;99733.20;1693084;84;20989;-71
2022/07/17 04:17:32;;;;;;;5.47;4.03;;;;;;;18.33;70.61;99736.38;1670087;85;21042;-72
2022/07/17 04:20:00;;;;;;;4.85;4.03;;;;;;;18.37;70.50;99743.66;1665004;85;21051;-70
2022/07/17 04:22:27;;;;;;;3.95;2.62;;;;;;;18.42;70.50;99739.48;1680884;85;21018;-70
2022/07/17 04:24:54;;;;;;;3.25;2.95;;;;;;;18.46;69.91;99743.25;1676548;85;22179;-72
2022/07/17 04:27:21;;;;;;;4.30;3.17;;;;;;;18.48;68.92;99743.73;1680723;85;20931;-71
2022/07/17 04:29:48;;;;;;;5.62;3.80;;;;;;;18.48;68.96;99747.01;1669335;85;21485;-70
2022/07/17 04:32:15;;;;;;;7.40;3.10;;;;;;;18.49;68.96;99748.63;1685340;84;21027;-72
2022/07/17 04:34:42;;;;;;;3.50;3.20;;;;;;;18.44;68.73;99752.26;1691227;84;20981;-71
2022/07/17 04:37:09;;;;;;;3.37;2.75;;;;;;;18.43;68.53;99756.63;1687658;84;21641;-70
2022/07/17 04:39:37;;;;;;;3.17;2.85;;;;;;;18.41;68.00;99754.78;1685867;85;20983;-70
2022/07/17 04:42:04;;;;;;;5.37;3.67;;;;;;;18.39;68.13;99756.44;1685975;85;21006;-69
2022/07/17 04:44:31;;;;;;;3.47;3.02;;;;;;;18.40;68.23;99759.42;1685655;85;20955;-71
2022/07/17 04:46:58;;;;;;;3.55;2.98;;;;;;;18.42;68.03;99761.82;1685866;85;21018;-69
2022/07/17 04:49:25;;;;;;;3.95;3.12;;;;;;;18.41;67.79;99764.31;1685644;84;21278;-71
2022/07/17 04:51:53;;;;;;;3.12;2.60;;;;;;;18.40;67.61;99770.31;1686208;85;20905;-74
2022/07/17 04:54:20;;;;;;;4.20;2.77;;;;;;;18.41;67.57;99761.59;1685855;85;21004;-70
2022/07/17 04:56:46;;;;;;;8.35;3.52;;;;;;;18.41;67.45;99763.77;1686405;85;21022;-72
2022/07/17 04:59:13;;;;;;;3.00;2.75;;;;;;;18.43;67.54;99761.53;1685907;84;21545;-70
2022/07/17 05:01:42;;;;;;;4.28;2.87;;;;;;;18.44;67.24;99756.89;1685073;84;20977;-70
2022/07/17 05:04:09;;;;;;;6.60;2.92;;;;;;;18.44;66.96;99754.98;1686810;85;21476;-70
2022/07/17 05:06:36;;;;;;;6.12;2.62;;;;;;;18.47;67.05;99746.20;1686710;84;21060;-71
2022/07/17 05:09:03;;;;;;;4.90;3.20;;;;;;;18.51;67.26;99743.13;1680492;84;21032;-71
2022/07/17 05:11:31;;;;;;;4.60;2.65;;;;;;;18.56;66.89;99747.14;1668610;86;21297;-69
2022/07/17 05:13:59;;;;;;;4.83;3.47;;;;;;;18.59;66.50;99743.84;1673057;84;21004;-70
2022/07/17 05:16:26;;;;;;;4.00;3.65;;;;;;;18.65;66.42;99732.30;1686473;84;22227;-70
2022/07/17 05:18:53;;;;;;;5.03;3.40;;;;;;;18.69;66.19;99732.75;1668529;86;20925;-69
2022/07/17 05:21:19;;;;;;;4.00;2.67;;;;;;;18.74;65.83;99726.39;1668388;85;21004;-67
2022/07/17 05:23:50;;;;;;;3.40;2.35;;;;;;;18.79;65.33;99716.75;1671614;85;21003;-70
2022/07/17 05:26:17;;;;;;;6.25;2.60;;;;;;;18.85;64.22;99719.61;1682767;85;21392;-72
2022/07/17 05:28:44;;;;;;;4.05;3.12;;;;;;;18.90;63.14;99731.77;1683473;85;21020;-73
2022/07/17 05:31:14;;;;;;;3.77;2.55;;;;;;;18.95;62.67;99738.48;1686339;84;21012;-69
2022/07/17 05:33:41;;;;;;;6.62;2.80;;;;;;;19.02;62.67;99744.91;1682154;85;21112;-75
2022/07/17 05:36:08;;;;;;;3.55;2.27;;;;;;;19.06;62.35;99748.08;1673508;85;21528;-70
2022/07/17 05:38:34;;;;;;;4.03;3.00;;;;;;;19.10;61.08;99745.55;1673601;85;21107;-69
2022/07/17 05:41:01;;;;;;;4.90;3.20;;;;;;;19.13;60.35;99742.23;1692163;83;21023;-71
2022/07/17 05:43:28;;;;;;;2.35;2.12;;;;;;;19.15;60.02;99739.44;1682946;85;21012;-71
2022/07/17 05:45:56;;;;;;;5.37;2.75;;;;;;;19.18;59.95;99732.58;1682893;85;21558;-73
2022/07/17 05:48:23;;;;;;;3.22;2.35;;;;;;;19.21;60.17;99730.59;1683143;85;20994;-69
2022/07/17 05:50:50;;;;;;;4.42;2.70;;;;;;;19.26;59.83;99738.66;1683810;85;21532;-68
2022/07/17 05:53:17;;;;;;;2.77;2.27;;;;;;;19.32;59.30;99751.64;1673706;85;21057;-71
2022/07/17 05:55:43;;;;;;;7.80;2.30;;;;;;;19.37;57.69;99743.34;1690972;84;21071;-71
2022/07/17 05:58:11;;;;;;;3.35;2.12;;;;;;;19.41;57.57;99751.16;1682732;84;21113;-71
2022/07/17 06:00:38;;;;;;;4.37;2.15;;;;;;;19.46;56.60;99749.72;1683491;84;21095;-70
2022/07/17 06:03:05;;;;;;;13.80;2.83;;;;;;;19.50;56.40;99751.52;1677230;84;21141;-70
2022/07/17 06:05:32;;;;;;;2.75;2.40;;;;;;;19.55;56.34;99749.23;1650364;86;21025;-69
2022/07/17 06:07:59;;;;;;;5.90;2.15;;;;;;;19.59;56.38;99755.13;1634921;87;21579;-72
2022/07/17 06:10:27;;;;;;;5.87;2.62;;;;;;;19.63;56.44;99761.33;1648073;86;20978;-69
2022/07/17 06:12:54;;;;;;;3.52;2.85;;;;;;;19.68;56.11;99740.20;1635242;87;21107;-72
2022/07/17 06:15:21;;;;;;;4.35;2.62;;;;;;;19.76;55.49;99729.89;1649906;85;21145;-71
2022/07/17 06:17:49;;;;;;;4.40;2.50;;;;;;;19.85;55.39;99730.80;1628788;87;20944;-69
2022/07/17 06:20:16;;;;;;;3.12;2.40;;;;;;;19.93;55.17;99734.14;1636351;87;21142;-71
2022/07/17 06:22:43;;;;;;;2.52;2.33;;;;;;;20.03;54.88;99740.72;1636063;86;21108;-70
2022/07/17 06:25:10;;;;;;;7.08;2.33;;;;;;;20.13;53.75;99758.77;1635337;87;21062;-72
2022/07/17 06:27:41;;;;;;;3.98;2.42;;;;;;;20.19;52.28;99745.22;1636528;86;21296;-71
2022/07/17 06:30:12;;;;;;;2.62;2.40;;;;;;;20.25;51.38;99769.11;1648108;86;21552;-76
2022/07/17 06:32:39;;;;;;;4.03;2.40;;;;;;;20.29;50.95;99755.88;1658599;86;21063;-71
2022/07/17 06:35:07;;;;;;;5.90;2.87;;;;;;;20.34;50.96;99759.08;1669186;85;21129;-73
2022/07/17 06:37:34;;;;;;;2.98;1.75;;;;;;;20.40;50.52;99751.00;1628003;87;21513;-72
2022/07/17 06:40:02;;;;;;;3.40;2.22;;;;;;;20.47;50.77;99747.27;1627236;88;21265;-72
2022/07/17 06:42:29;;;;;;;2.60;1.70;;;;;;;20.56;50.95;99761.78;1647445;86;20989;-71
2022/07/17 06:44:55;;;;;;;2.47;2.12;;;;;;;20.63;50.49;99760.76;1636476;87;21127;-71
2022/07/17 06:47:23;;;;;;;3.25;2.17;;;;;;;20.61;50.27;99758.11;1632853;87;21065;-70
2022/07/17 06:49:50;;;;;;;3.02;1.70;;;;;;;20.58;50.52;99767.73;1648065;87;21705;-71
2022/07/17 06:52:17;;;;;;;5.12;1.62;;;;;;;20.58;50.16;99761.45;1628099;88;21832;-71
2022/07/17 06:54:43;;;;;;;2.40;1.82;;;;;;;20.55;50.17;99784.77;1634962;87;21049;-70
2022/07/17 06:57:11;;;;;;;10.43;2.15;;;;;;;20.49;50.05;99782.46;1647701;87;21144;-70
2022/07/17 06:59:40;;;;;;;1.98;1.77;;;;;;;20.37;50.18;99788.52;1663274;85;21026;-68
2022/07/17 07:02:07;;;;;;;2.20;2.00;;;;;;;20.25;50.55;99806.80;1675964;84;21114;-70
2022/07/17 07:04:33;;;;;;;5.28;2.00;;;;;;;20.12;51.29;99799.48;1646141;86;21102;-69
2022/07/17 07:07:00;;;;;;;4.58;2.50;;;;;;;19.97;53.09;99791.09;1675064;84;21001;-70
2022/07/17 07:09:28;;;;;;;4.12;3.55;;;;;;;19.81;54.18;99795.84;1674899;84;21014;-72
2022/07/17 07:11:55;;;;;;;6.92;2.98;;;;;;;19.64;55.01;99806.05;1646454;87;21010;-74
2022/07/17 07:14:22;;;;;;;12.78;2.95;;;;;;;19.50;55.93;99811.55;1646329;87;21049;-71
2022/07/17 07:16:51;;;;;;;2.70;2.10;;;;;;;19.34;56.89;99828.49;1675151;84;21246;-70
2022/07/17 07:19:21;;;;;;;3.17;2.45;;;;;;;19.16;57.34;99837.85;1674834;84;21006;-71
2022/07/17 07:21:48;;;;;;;5.20;2.10;;;;;;;18.96;57.95;99825.97;1646066;86;21100;-71
2022/07/17 07:24:14;;;;;;;4.17;1.90;;;;;;;18.81;58.48;99823.52;1674640;85;21465;-70
2022/07/17 07:26:41;;;;;;;3.45;2.30;;;;;;;18.68;58.53;99833.85;1621559;88;21627;-70
2022/07/17 07:29:08;;;;;;;4.17;2.67;;;;;;;18.53;59.00;99834.08;1656068;85;21273;-69
2022/07/17 07:31:35;;;;;;;2.20;1.70;;;;;;;18.43;59.57;99838.34;1675399;85;20981;-70
2022/07/17 07:34:03;;;;;;;2.52;1.65;;;;;;;18.37;59.29;99851.22;1648116;87;21028;-70
2022/07/17 07:36:31;;;;;;;3.40;1.52;;;;;;;18.27;59.01;99834.50;1672503;85;21065;-70
2022/07/17 07:38:57;;;;;;;2.15;1.50;;;;;;;18.17;59.37;99852.38;1673757;85;21498;-70
2022/07/17 07:41:24;;;;;;;2.20;1.47;;;;;;;18.09;60.03;99853.03;1689623;84;21147;-71
2022/07/17 07:43:51;;;;;;;5.45;1.50;;;;;;;17.99;59.68;99857.26;1683858;85;21040;-70
2022/07/17 07:46:21;;;;;;;2.77;1.57;;;;;;;17.91;60.09;99875.62;1672795;85;21503;-70
2022/07/17 07:48:47;;;;;;;2.52;2.15;;;;;;;17.80;60.29;99855.90;1675454;84;21061;-70
2022/07/17 07:51:14;;;;;;;1.72;1.62;;;;;;;17.70;60.64;99851.95;1675268;85;21052;-70
2022/07/17 07:53:41;;;;;;;2.10;1.80;;;;;;;17.63;61.37;99860.23;1675148;84;21206;-72
2022/07/17 07:56:08;;;;;;;4.25;1.85;;;;;;;17.60;61.79;99850.72;1675297;84;20934;-70
2022/07/17 07:58:35;;;;;;;2.25;1.42;;;;;;;17.56;62.34;99867.34;1675187;84;21071;-72
2022/07/17 08:01:03;;;;;;;2.75;1.70;;;;;;;17.53;62.84;99873.92;1646515;87;21096;-71
2022/07/17 08:03:29;;;;;;;4.80;2.83;;;;;;;17.51;63.52;99881.00;1645002;86;21201;-70
2022/07/17 08:05:56;;;;;;;3.55;1.92;;;;;;;17.46;64.36;99879.70;1685372;85;21104;-68
2022/07/17 08:08:23;;;;;;;3.87;2.12;;;;;;;17.36;65.01;99886.07;1682936;85;21509;-70
2022/07/17 08:10:50;;;;;;;3.65;2.02;;;;;;;17.25;65.52;99882.41;1691022;84;20997;-70
2022/07/17 08:13:17;;;;;;;2.02;1.92;;;;;;;17.16;66.03;99859.14;1678783;85;21545;-68
2022/07/17 08:15:44;;;;;;;1.35;1.32;;;;;;;17.10;66.42;99868.44;1680321;85;20978;-69
2022/07/17 08:18:10;;;;;;;2.33;1.55;;;;;;;17.07;66.72;99881.80;1679890;85;21561;-70
2022/07/17 08:20:38;;;;;;;2.35;1.75;;;;;;;16.99;67.40;99877.23;1692128;83;21012;-70
2022/07/17 08:23:06;;;;;;;1.67;1.25;;;;;;;16.92;68.12;99880.86;1691182;84;21403;-70
2022/07/17 08:25:33;;;;;;;2.05;1.50;;;;;;;16.89;68.48;99891.47;1691061;83;21020;-70
2022/07/17 08:28:00;;;;;;;2.40;1.57;;;;;;;16.80;69.06;99906.22;1691010;84;21187;-72
2022/07/17 08:30:27;;;;;;;6.08;1.67;;;;;;;16.77;69.32;99882.36;1691163;84;21042;-71
2022/07/17 08:32:54;;;;;;;2.35;1.50;;;;;;;16.73;69.27;99913.09;1687819;85;20940;-70
2022/07/17 08:35:22;;;;;;;2.02;1.70;;;;;;;16.70;69.25;99879.69;1685509;85;20994;-71
2022/07/17 08:37:51;;;;;;;1.85;1.75;;;;;;;16.70;69.34;99867.47;1701753;83;20925;-70
2022/07/17 08:40:27;;;;;;;2.02;1.55;;;;;;;16.70;69.11;99887.84;1710491;83;21505;-71
2022/07/17 08:42:55;;;;;;;2.17;1.35;;;;;;;16.72;69.09;99888.38;1710123;83;21175;-71
2022/07/17 08:45:22;;;;;;;1.70;1.60;;;;;;;16.69;68.89;99873.45;1710011;83;21021;-73
2022/07/17 08:47:54;;;;;;;1.55;1.10;;;;;;;16.69;69.26;99874.02;1710464;83;20992;-70
2022/07/17 08:50:31;;;;;;;2.22;1.60;;;;;;;16.73;69.01;99858.22;1710066;83;21024;-75
2022/07/17 08:52:59;;;;;;;2.80;1.90;;;;;;;16.78;68.75;99882.62;1710109;83;20979;-72
2022/07/17 08:55:26;;;;;;;1.70;1.60;;;;;;;16.81;68.61;99881.23;1710506;83;21513;-70
2022/07/17 08:57:54;;;;;;;1.50;1.40;;;;;;;16.79;67.74;99858.96;1661545;86;21051;-72
2022/07/17 09:00:23;;;;;;;1.80;1.70;;;;;;;16.83;68.02;99866.28;1663203;85;21049;-71
2022/07/17 09:03:04;;;;;;;2.08;1.57;;;;;;;16.86;68.52;99863.52;1680840;84;21038;-70
2022/07/17 09:05:37;;;;;;;3.15;1.87;;;;;;;16.90;68.93;99865.38;1683070;85;21030;-70
2022/07/17 09:08:06;;;;;;;1.82;1.72;;;;;;;17.00;68.55;99857.13;1670849;85;24452;-73
2022/07/17 09:10:43;;;;;;;2.02;1.57;;;;;;;17.11;68.49;99870.61;1660785;85;21041;-70
2022/07/17 09:13:31;;;;;;;1.50;1.40;;;;;;;17.19;68.29;99872.14;1670261;85;21033;-72
2022/07/17 09:16:09;;;;;;;2.00;1.37;;;;;;;17.26;68.39;99860.38;1673598;85;21057;-71
2022/07/17 09:18:57;;;;;;;2.05;1.95;;;;;;;17.36;67.15;99849.36;1668118;85;21561;-71
2022/07/17 09:21:28;;;;;;;1.60;1.42;;;;;;;17.39;66.29;99856.14;1659844;85;21096;-68
2022/07/17 09:24:07;;;;;;;2.42;1.62;;;;;;;17.43;66.30;99868.87;1689569;85;20982;-69
2022/07/17 09:26:34;;;;;;;6.30;3.30;;;;;;;17.49;65.54;99866.90;1688925;84;22590;-70
2022/07/17 09:29:02;;;;;;;2.25;1.80;;;;;;;17.57;65.45;99855.91;1688869;85;21537;-71
2022/07/17 09:31:32;;;;;;;3.67;2.15;;;;;;;17.65;65.85;99843.08;1688958;85;20945;-70
2022/07/17 09:33:59;;;;;;;1.75;1.62;;;;;;;17.70;65.04;99860.11;1689854;85;21130;-72
2022/07/17 09:36:27;;;;;;;4.72;1.50;;;;;;;17.76;64.21;99857.59;1673627;84;21060;-71
2022/07/17 09:38:57;;;;;;;1.55;1.45;;;;;;;17.79;64.07;99862.44;1688885;84;21033;-73
2022/07/17 09:41:29;;;;;;;2.30;1.30;;;;;;;17.85;63.17;99870.80;1689291;85;21526;-74
2022/07/17 09:43:59;;;;;;;2.22;1.82;;;;;;;17.88;62.60;99863.97;1689588;84;20971;-70
2022/07/17 09:46:28;;;;;;;1.87;1.62;;;;;;;17.92;61.50;99847.86;1688869;84;21192;-72
2022/07/17 09:48:58;;;;;;;1.85;1.10;;;;;;;17.96;60.38;99858.41;1687267;85;20989;-72
2022/07/17 09:51:33;;;;;;;1.32;1.20;;;;;;;18.02;58.94;99893.98;1689310;84;20985;-69
2022/07/17 09:54:02;;;;;;;1.50;1.10;;;;;;;18.06;54.87;99869.15;1689943;85;21570;-71
2022/07/17 09:56:31;;;;;;;1.50;1.40;;;;;;;18.08;53.61;99858.79;1673638;85;21009;-71
2022/07/17 09:59:11;;;;;;;2.65;1.37;;;;;;;18.08;53.54;99843.23;1689418;84;21110;-70
2022/07/17 10:01:41;;;;;;;1.80;1.45;;;;;;;18.14;54.92;99877.45;1661014;85;20958;-70
2022/07/17 10:04:09;;;;;;;1.52;1.42;;;;;;;18.14;52.92;99880.18;1705729;83;21059;-71
2022/07/17 10:06:36;;;;;;;1.40;1.30;;;;;;;18.14;53.53;99893.79;1710070;83;21537;-72
2022/07/17 10:09:05;;;;;;;1.80;1.35;;;;;;;18.11;53.38;99865.80;1708377;83;20975;-72
2022/07/17 10:11:38;;;;;;;1.65;1.32;;;;;;;18.14;53.75;99873.38;1710330;83;21166;-71
2022/07/17 10:14:08;;;;;;;1.70;1.05;;;;;;;18.19;52.27;99885.55;1666806;84;21067;-72
2022/07/17 10:16:37;;;;;;;0.70;0.70;;;;;;;18.21;49.03;99875.73;1666517;85;21003;-70
2022/07/17 10:19:05;;;;;;;1.37;0.95;;;;;;;18.21;48.69;99868.38;1700291;83;21142;-71
2022/07/17 10:21:32;;;;;;;0.72;0.72;;;;;;;18.26;49.08;99867.48;1688355;83;21533;-72
2022/07/17 10:24:04;;;;;;;1.02;0.90;;;;;;;18.33;46.76;99859.73;1710544;83;21200;-70
2022/07/17 10:26:38;;;;;;;1.20;1.10;;;;;;;18.39;47.56;99863.20;1690240;84;21078;-78
2022/07/17 10:29:11;;;;;;;1.85;1.20;;;;;;;18.37;48.28;99845.78;1673156;85;21060;-73
2022/07/17 10:31:43;;;;;;;1.45;1.02;;;;;;;18.47;49.01;99849.70;1671139;85;21542;-71
2022/07/17 10:34:09;;;;;;;1.65;1.10;;;;;;;18.59;49.26;99858.81;1671856;85;21080;-72
2022/07/17 10:36:39;;;;;;;2.00;1.17;;;;;;;18.69;49.93;99853.19;1690948;84;22097;-73
2022/07/17 10:39:20;;;;;;;1.30;0.90;;;;;;;18.79;49.97;99850.28;1663031;85;21123;-72
2022/07/17 10:41:59;;;;;;;1.35;1.10;;;;;;;18.92;50.10;99848.68;1672478;85;21575;-72
2022/07/17 10:44:29;;;;;;;2.02;1.20;;;;;;;19.06;49.58;99858.49;1691126;84;21054;-73
2022/07/17 10:46:59;;;;;;;1.62;1.10;;;;;;;19.16;49.75;99844.67;1690789;84;35867;-71
2022/07/17 10:49:28;;;;;;;2.50;1.37;;;;;;;19.31;49.94;99833.20;1672754;85;21140;-72
2022/07/17 10:51:55;;;;;;;3.95;1.52;;;;;;;19.46;50.03;99842.47;1691012;84;20965;-73
2022/07/17 10:54:27;;;;;;;2.65;1.20;;;;;;;19.63;49.99;99836.37;1688270;83;21614;-75
2022/07/17 10:56:54;;;;;;;1.92;1.52;;;;;;;19.84;50.07;99833.45;1653396;85;21490;-72
2022/07/17 10:59:21;;;;;;;1.90;1.25;;;;;;;20.01;49.95;99826.77;1643749;86;21119;-73
2022/07/17 11:01:56;;;;;;;2.25;1.27;;;;;;;20.14;49.78;99832.77;1659127;85;22121;-73
2022/07/17 11:04:23;;;;;;;1.45;1.15;;;;;;;20.28;49.10;99825.31;1670065;85;21077;-74
2022/07/17 11:06:51;;;;;;;2.22;1.37;;;;;;;20.37;47.35;99819.38;1676720;85;21050;-73
2022/07/17 11:09:17;;;;;;;2.90;1.45;;;;;;;20.45;45.61;99826.81;1654876;85;21042;-73
2022/07/17 11:11:51;;;;;;;1.98;1.45;;;;;;;20.58;45.56;99816.11;1689613;85;21045;-72
2022/07/17 11:14:24;;;;;;;3.27;1.27;;;;;;;20.60;45.80;99819.34;1689778;84;20926;-78
2022/07/17 11:16:59;;;;;;;1.32;1.00;;;;;;;20.60;45.11;99820.16;1689112;85;21057;-72
2022/07/17 11:19:38;;;;;;;3.17;0.95;;;;;;;20.58;44.79;99827.04;1689795;84;21564;-71
2022/07/17 11:22:11;;;;;;;2.92;1.62;;;;;;;20.57;44.90;99811.78;1677750;85;21662;-75
2022/07/17 11:24:42;;;;;;;2.98;0.90;;;;;;;20.64;44.27;99831.27;1689586;85;22219;-73
2022/07/17 11:27:11;;;;;;;1.65;1.10;;;;;;;20.64;44.17;99822.51;1689584;85;21136;-73
2022/07/17 11:29:40;;;;;;;1.37;1.05;;;;;;;20.60;44.49;99838.48;1673522;85;21468;-73
2022/07/17 11:32:07;;;;;;;2.45;1.10;;;;;;;20.50;44.96;99826.44;1689532;84;21400;-73
2022/07/17 11:34:34;;;;;;;1.85;1.10;;;;;;;20.42;45.68;99826.09;1677248;85;21031;-72
2022/07/17 11:37:06;;;;;;;1.05;0.72;;;;;;;20.41;46.12;99837.31;1689601;84;21034;-74
2022/07/17 11:39:46;;;;;;;1.17;1.07;;;;;;;20.48;46.38;99841.77;1677855;85;21136;-72